Time;durP1;ratioP1;P1;durP2;ratioP2;P2;SDS_P1;SDS_P2;PMS_P1;PMS_P2;Temp;Humidity;BMP_temperature;BMP_pressure;BME280_temperature;BME280_humidity;BME280_pressure;Samples;Min_cycle;Max_cycle;Signal;HPM_P1;HPM_P2
2021/04/17 06:00:13;;;;;;;41.90;25.40;;;;;;;7.17;90.00;100422.30;1774619;76;27399;31
2021/04/17 06:02:40;;;;;;;42.25;23.87;;;;;;;7.23;90.01;100420.34;1708944;82;25418;-59
2021/04/17 06:05:09;;;;;;;48.52;25.43;;;;;;;7.27;89.92;100419.51;1712709;83;28071;-59
2021/04/17 06:07:35;;;;;;;37.10;23.62;;;;;;;7.33;90.00;100418.11;1685334;83;25473;-59
2021/04/17 06:10:04;;;;;;;43.68;23.83;;;;;;;7.39;90.07;100422.34;1701978;83;25441;-59
2021/04/17 06:12:30;;;;;;;40.47;25.33;;;;;;;7.44;90.10;100424.46;1713438;83;25307;-59
2021/04/17 06:14:57;;;;;;;44.60;22.82;;;;;;;7.48;89.96;100424.69;1713375;83;25349;-59
2021/04/17 06:17:24;;;;;;;45.85;23.40;;;;;;;7.50;89.91;100419.82;1696602;83;25782;-58
2021/04/17 06:19:50;;;;;;;36.55;22.67;;;;;;;7.55;89.83;100421.11;1664433;85;25259;-59
2021/04/17 06:22:17;;;;;;;46.73;23.85;;;;;;;7.59;89.78;100423.48;1677651;85;25450;-58
2021/04/17 06:24:44;;;;;;;48.25;28.75;;;;;;;7.61;89.66;100432.09;1683084;85;25336;-57
2021/04/17 06:27:12;;;;;;;50.15;23.67;;;;;;;7.63;89.60;100431.81;1676897;85;25516;-59
2021/04/17 06:29:38;;;;;;;42.73;27.22;;;;;;;7.65;89.53;100439.05;1718739;83;25789;-59
2021/04/17 06:32:06;;;;;;;42.23;23.90;;;;;;;7.66;89.55;100441.47;1715388;83;25293;-59
2021/04/17 06:34:33;;;;;;;36.58;22.73;;;;;;;7.68;89.54;100438.48;1709138;84;25341;-60
2021/04/17 06:36:59;;;;;;;40.08;23.02;;;;;;;7.70;89.52;100448.42;1709054;84;25327;-59
2021/04/17 06:39:26;;;;;;;38.42;23.45;;;;;;;7.73;89.50;100445.69;1709104;84;25339;-58
2021/04/17 06:41:54;;;;;;;45.52;23.07;;;;;;;7.73;89.42;100438.95;1707976;84;25778;-59
2021/04/17 06:44:22;;;;;;;45.52;24.05;;;;;;;7.74;89.52;100441.36;1708122;84;25594;-59
2021/04/17 06:46:50;;;;;;;46.75;23.22;;;;;;;7.77;89.46;100444.84;1707607;83;26091;-60
2021/04/17 06:49:18;;;;;;;45.28;23.22;;;;;;;7.80;89.43;100448.87;1723262;82;25586;-60
2021/04/17 06:51:49;;;;;;;44.03;22.42;;;;;;;7.83;89.56;100449.09;1741290;82;25648;-60
2021/04/17 06:54:20;;;;;;;37.63;22.98;;;;;;;7.84;89.50;100443.16;1711150;82;26611;-60
2021/04/17 06:56:50;;;;;;;38.80;22.95;;;;;;;7.89;89.59;100447.69;1678933;85;25772;-60
2021/04/17 06:59:17;;;;;;;39.08;22.30;;;;;;;7.92;89.51;100452.51;1741422;81;25684;-60
2021/04/17 07:01:44;;;;;;;38.83;22.60;;;;;;;7.93;89.51;100444.11;1741187;82;25647;-59
2021/04/17 07:04:13;;;;;;;40.48;24.43;;;;;;;7.96;89.57;100451.63;1741193;82;25222;-60
2021/04/17 07:06:40;;;;;;;35.78;22.58;;;;;;;8.00;89.60;100450.50;1742269;81;26296;-60
2021/04/17 07:09:07;;;;;;;40.10;22.95;;;;;;;8.00;89.42;100452.67;1744279;82;25514;-59
2021/04/17 07:11:33;;;;;;;40.35;24.52;;;;;;;8.02;89.36;100453.73;1740562;82;25602;-60
2021/04/17 07:14:11;;;;;;;41.88;25.43;;;;;;;8.03;89.33;100460.16;1741069;82;26014;-60
2021/04/17 07:17:02;;;;;;;49.73;29.05;;;;;;;8.05;89.29;100466.60;1743104;82;25570;-58
2021/04/17 07:20:01;;;;;;;48.17;25.10;;;;;;;8.07;89.25;100465.80;1739563;82;26826;-62
2021/04/17 07:22:37;;;;;;;;;;;;;;;8.09;89.41;100467.65;1744979;82;25512;-60
2021/04/17 07:25:10;;;;;;;35.23;22.37;;;;;;;8.12;89.43;100468.95;1747092;82;25524;-61
2021/04/17 07:27:52;;;;;;;41.25;23.73;;;;;;;8.14;89.53;100468.11;1746988;82;25442;-60
2021/04/17 07:30:30;;;;;;;36.73;23.75;;;;;;;8.17;89.62;100464.84;1720180;82;25534;-60
2021/04/17 07:33:18;;;;;;;37.15;23.22;;;;;;;8.20;89.53;100474.50;1713289;82;25996;-60
2021/04/17 07:35:52;;;;;;;36.80;22.87;;;;;;;8.22;89.48;100476.39;1708373;83;25548;-61
2021/04/17 07:38:29;;;;;;;41.20;23.57;;;;;;;8.25;89.47;100476.89;1676334;85;25645;-61
2021/04/17 07:41:04;;;;;;;43.87;23.85;;;;;;;8.25;89.34;100473.64;1658503;86;25556;-61
2021/04/17 07:43:49;;;;;;;39.85;24.55;;;;;;;8.26;89.37;100477.95;1740939;82;25540;-60
2021/04/17 07:46:28;;;;;;;38.05;23.75;;;;;;;8.27;89.31;100480.89;1737403;82;26167;-60
2021/04/17 07:49:26;;;;;;;44.35;26.65;;;;;;;8.29;89.33;100481.42;1738172;82;26448;-61
2021/04/17 07:52:05;;;;;;;47.80;28.83;;;;;;;8.28;89.13;100483.06;1746235;82;25503;-60
2021/04/17 07:54:33;;;;;;;63.65;35.15;;;;;;;8.27;89.23;100482.23;1746305;82;25593;-61
2021/04/17 07:57:10;;;;;;;49.95;28.40;;;;;;;8.28;89.17;100493.28;1746164;82;25585;-60
2021/04/17 07:59:42;;;;;;;56.63;32.13;;;;;;;8.27;89.13;100488.97;1735353;82;25881;-62
2021/04/17 08:02:11;;;;;;;48.02;27.65;;;;;;;8.27;89.16;100490.88;1746000;82;25672;-61
2021/04/17 08:04:39;;;;;;;;;;;;;;;8.29;89.27;100492.73;1748872;82;25515;-60
2021/04/17 08:07:06;;;;;;;42.40;25.77;;;;;;;8.30;89.29;100487.61;1740469;82;25589;-60
2021/04/17 08:09:35;;;;;;;54.88;29.77;;;;;;;8.30;89.38;100489.75;1730614;82;25610;-60
2021/04/17 08:12:03;;;;;;;52.15;30.23;;;;;;;8.33;89.40;100489.73;1697334;82;25915;-61
2021/04/17 08:14:30;;;;;;;51.37;29.52;;;;;;;8.36;89.57;100489.95;1696618;83;25472;-60
2021/04/17 08:16:57;;;;;;;45.65;29.18;;;;;;;8.42;89.71;100489.34;1703794;82;25299;-61
2021/04/17 08:19:24;;;;;;;48.13;27.98;;;;;;;8.49;89.82;100487.11;1689668;83;25456;-60
2021/04/17 08:21:52;;;;;;;39.23;24.65;;;;;;;8.55;89.90;100495.40;1676642;85;25278;-60
2021/04/17 08:24:27;;;;;;;40.70;25.30;;;;;;;8.57;89.42;100492.41;1676638;85;25786;-60
2021/04/17 08:26:56;;;;;;;36.33;24.18;;;;;;;8.58;89.21;100498.05;1676535;85;25452;-60
2021/04/17 08:29:46;;;;;;;;;;;;;;;8.62;89.27;100495.59;1691400;83;25651;-60
2021/04/17 08:32:40;;;;;;;;;;;;;;;8.69;89.47;100495.48;1686581;85;25594;-60
2021/04/17 08:35:23;;;;;;;41.05;24.20;;;;;;;8.73;89.41;100488.39;1683477;85;25579;-59
2021/04/17 08:38:03;;;;;;;39.63;24.98;;;;;;;8.79;89.39;100495.89;1684438;84;25723;-59
2021/04/17 08:40:40;;;;;;;43.13;25.08;;;;;;;8.85;89.68;100494.70;1684595;85;25280;-62
2021/04/17 08:43:22;;;;;;;39.80;25.25;;;;;;;8.94;89.56;100486.78;1684681;85;25494;-63
2021/04/17 08:46:14;;;;;;;38.45;22.95;;;;;;;9.00;89.54;100493.68;1684703;85;25492;-58
2021/04/17 08:48:55;;;;;;;39.40;24.77;;;;;;;9.04;89.22;100489.31;1684783;85;25357;-60
2021/04/17 08:51:30;;;;;;;40.52;23.92;;;;;;;9.08;88.97;100498.41;1684094;85;25728;-60
2021/04/17 08:54:09;;;;;;;37.13;24.43;;;;;;;9.11;88.83;100499.74;1683224;85;25916;-61
2021/04/17 08:56:54;;;;;;;34.40;21.82;;;;;;;9.14;88.95;100504.00;1683245;85;25658;-61
2021/04/17 08:59:34;;;;;;;31.87;20.85;;;;;;;9.14;88.52;100504.00;1683349;85;25517;-62
2021/04/17 09:02:06;;;;;;;33.58;21.50;;;;;;;9.16;88.41;100498.31;1682352;84;25592;-60
2021/04/17 09:04:35;;;;;;;42.93;27.07;;;;;;;9.18;88.41;100497.47;1708278;83;25715;-60
2021/04/17 09:07:15;;;;;;;44.45;28.17;;;;;;;9.20;88.35;100498.52;1687280;84;33142;-60
2021/04/17 09:09:42;;;;;;;34.18;22.50;;;;;;;9.21;88.32;100496.88;1678223;85;25312;-60
2021/04/17 09:12:15;;;;;;;34.23;21.65;;;;;;;9.24;88.32;100494.91;1687143;84;25487;-61
2021/04/17 09:14:54;;;;;;;31.25;22.15;;;;;;;9.26;88.32;100502.72;1677992;85;25261;-60
2021/04/17 09:17:41;;;;;;;34.75;22.50;;;;;;;9.27;88.34;100499.73;1678273;85;25892;-60
2021/04/17 09:20:13;;;;;;;33.78;22.52;;;;;;;9.29;88.28;100502.14;1677713;85;25548;-59
2021/04/17 09:22:42;;;;;;;33.70;22.10;;;;;;;9.29;88.20;100496.73;1689943;83;25439;-59
2021/04/17 09:25:17;;;;;;;30.52;21.65;;;;;;;9.30;88.08;100501.05;1678134;85;25292;-60
2021/04/17 09:27:48;;;;;;;30.23;21.02;;;;;;;9.29;87.92;100504.28;1689915;83;25523;-60
2021/04/17 09:30:21;;;;;;;31.20;20.72;;;;;;;9.29;87.83;100506.19;1678024;85;25773;-61
2021/04/17 09:32:52;;;;;;;32.00;21.15;;;;;;;9.26;87.89;100507.59;1677896;85;25259;-59
2021/04/17 09:35:24;;;;;;;32.78;21.05;;;;;;;9.26;87.93;100508.94;1688375;84;25505;-59
2021/04/17 09:38:09;;;;;;;99.35;52.90;;;;;;;9.28;88.04;100513.49;1688283;85;25521;-62
2021/04/17 09:40:52;;;;;;;38.70;24.47;;;;;;;9.30;88.01;100508.59;1677624;85;25759;-61
2021/04/17 09:43:23;;;;;;;36.38;21.85;;;;;;;9.31;88.13;100512.09;1690181;83;25715;-61
2021/04/17 09:45:52;;;;;;;33.48;21.37;;;;;;;9.34;88.13;100507.45;1714228;82;25215;-60
2021/04/17 09:48:22;;;;;;;28.15;19.70;;;;;;;9.39;88.27;100505.23;1706185;84;25657;-60
2021/04/17 09:50:55;;;;;;;32.10;20.95;;;;;;;9.44;88.19;100510.55;1706437;83;25271;-60
2021/04/17 09:53:34;;;;;;;28.98;20.52;;;;;;;9.46;88.16;100506.44;1706430;84;25495;-60
2021/04/17 09:56:11;;;;;;;28.25;18.77;;;;;;;9.53;88.17;100513.62;1705590;84;25717;-58
2021/04/17 09:58:38;;;;;;;30.50;20.55;;;;;;;9.58;88.13;100508.66;1704826;84;25551;-63
2021/04/17 10:01:14;;;;;;;31.27;20.72;;;;;;;9.66;88.45;100512.04;1716767;82;25308;-60
2021/04/17 10:03:44;;;;;;;32.83;20.45;;;;;;;9.76;88.34;100515.11;1737337;82;25558;-60
2021/04/17 10:06:30;;;;;;;31.52;20.12;;;;;;;9.85;88.16;100513.88;1745489;82;25435;-60
2021/04/17 10:09:13;;;;;;;29.60;20.02;;;;;;;9.90;88.05;100519.18;1733524;80;29701;-61
2021/04/17 10:11:43;;;;;;;30.20;19.32;;;;;;;9.96;87.62;100517.17;1746633;82;25460;-60
2021/04/17 10:14:13;;;;;;;30.70;20.00;;;;;;;10.02;87.69;100522.75;1744877;82;25250;-59
2021/04/17 10:16:45;;;;;;;28.38;20.08;;;;;;;10.07;87.67;100523.44;1748993;82;25694;-58
2021/04/17 10:19:18;;;;;;;29.00;18.87;;;;;;;10.15;87.60;100526.55;1748998;81;25604;-59
2021/04/17 10:21:47;;;;;;;29.48;19.27;;;;;;;10.17;87.24;100524.36;1749669;82;26241;-59
2021/04/17 10:24:35;;;;;;;32.58;21.52;;;;;;;10.17;86.87;100525.16;1749767;82;25638;-60
2021/04/17 10:27:13;;;;;;;30.73;19.60;;;;;;;10.16;86.68;100531.66;1746477;82;25605;-60
2021/04/17 10:29:52;;;;;;;30.35;20.35;;;;;;;10.19;86.77;100531.05;1694493;83;25475;-60
2021/04/17 10:32:23;;;;;;;28.77;19.77;;;;;;;10.22;86.80;100529.67;1678295;82;25598;-60
2021/04/17 10:35:12;;;;;;;28.38;19.37;;;;;;;10.23;86.68;100530.72;1693022;82;25796;-60
2021/04/17 10:37:47;;;;;;;27.93;19.55;;;;;;;10.24;86.61;100527.46;1696709;82;25584;-60
2021/04/17 10:40:18;;;;;;;27.67;18.73;;;;;;;10.24;86.29;100528.81;1696676;82;25859;-61
2021/04/17 10:42:55;;;;;;;30.85;19.35;;;;;;;10.22;86.12;100534.52;1695424;82;25625;-61
2021/04/17 10:45:33;;;;;;;27.62;19.45;;;;;;;10.22;86.16;100536.43;1673368;83;25645;-61
2021/04/17 10:48:14;;;;;;;28.75;19.65;;;;;;;10.22;86.16;100535.87;1692327;82;25834;-61
2021/04/17 10:51:04;;;;;;;29.12;19.20;;;;;;;10.20;85.91;100534.02;1702011;82;25499;-60
2021/04/17 10:53:38;;;;;;;33.60;21.80;;;;;;;10.18;85.80;100534.06;1694041;82;25482;-60
2021/04/17 10:56:22;;;;;;;32.75;22.95;;;;;;;10.12;85.57;100538.77;1694361;82;25375;-60
2021/04/17 10:59:02;;;;;;;35.35;22.85;;;;;;;10.02;85.03;100540.31;1697226;82;25363;-60
2021/04/17 11:01:35;;;;;;;31.93;22.05;;;;;;;9.88;84.88;100538.39;1678345;83;25784;-59
2021/04/17 11:04:04;;;;;;;36.03;24.18;;;;;;;9.81;85.26;100546.65;1695191;82;25632;-59
2021/04/17 11:06:35;;;;;;;35.48;23.57;;;;;;;9.73;85.10;100541.37;1698410;82;25586;-60
2021/04/17 11:09:08;;;;;;;33.67;23.62;;;;;;;9.66;85.23;100540.95;1680951;84;25542;-61
2021/04/17 11:11:37;;;;;;;32.03;22.80;;;;;;;9.64;85.53;100543.95;1707907;83;25602;-59
2021/04/17 11:14:06;;;;;;;32.42;22.52;;;;;;;9.65;85.66;100544.74;1714644;83;25717;-59
2021/04/17 11:16:45;;;;;;;37.95;24.80;;;;;;;9.68;86.10;100541.45;1718962;83;25439;-60
2021/04/17 11:19:28;;;;;;;35.52;24.12;;;;;;;9.74;86.43;100544.33;1719469;83;25563;-60
2021/04/17 11:22:21;;;;;;;33.23;23.52;;;;;;;9.77;86.26;100542.36;1698625;83;26126;-60
2021/04/17 11:25:05;;;;;;;33.28;23.77;;;;;;;9.81;86.50;100539.89;1690193;84;25568;-60
2021/04/17 11:27:34;;;;;;;33.85;23.30;;;;;;;9.87;86.55;100544.09;1690500;84;25714;-60
2021/04/17 11:30:03;;;;;;;39.03;24.45;;;;;;;9.93;86.55;100544.79;1690306;84;25454;-61
2021/04/17 11:32:30;;;;;;;35.17;24.12;;;;;;;9.95;86.38;100539.91;1690028;84;25366;-61
2021/04/17 11:34:56;;;;;;;32.38;23.00;;;;;;;9.94;86.08;100547.20;1690351;84;25289;-61
2021/04/17 11:37:25;;;;;;;32.83;22.75;;;;;;;9.98;86.39;100544.16;1709157;83;25626;-60
2021/04/17 11:39:51;;;;;;;37.93;24.25;;;;;;;10.01;86.45;100544.92;1718571;82;26167;-62
2021/04/17 11:42:18;;;;;;;33.95;22.07;;;;;;;10.06;86.54;100549.41;1719146;82;25579;-60
2021/04/17 11:44:47;;;;;;;33.65;23.57;;;;;;;10.09;86.57;100546.91;1719213;82;25360;-60
2021/04/17 11:47:14;;;;;;;33.75;23.30;;;;;;;10.14;86.74;100546.02;1714576;83;25360;-61
2021/04/17 11:49:42;;;;;;;35.90;22.93;;;;;;;10.19;86.64;100540.52;1714797;83;25511;-61
2021/04/17 11:52:08;;;;;;;35.92;25.02;;;;;;;10.28;86.96;100542.79;1717353;82;25998;-61
2021/04/17 11:54:36;;;;;;;41.08;25.75;;;;;;;10.52;87.78;100533.70;1712215;83;25645;-61
2021/04/17 11:59:41;;;;;;;37.17;24.12;;;;;;;11.58;88.84;100537.50;1868975;76;34709;-62
2021/04/17 12:02:08;;;;;;;34.43;22.93;;;;;;;11.87;88.39;100536.23;1842279;76;25673;-61
2021/04/17 12:04:43;;;;;;;26.55;19.35;;;;;;;12.65;88.64;100534.34;1847114;76;25791;-60
2021/04/17 12:07:09;;;;;;;30.27;20.55;;;;;;;13.06;87.20;100534.48;1775780;80;25476;-62
2021/04/17 12:09:36;;;;;;;31.10;20.80;;;;;;;13.17;84.33;100535.73;1786237;79;25753;-62
2021/04/17 12:12:05;;;;;;;27.07;20.05;;;;;;;13.11;83.29;100532.14;1793358;79;25597;-62
2021/04/17 12:14:31;;;;;;;29.82;21.17;;;;;;;13.03;82.43;100537.26;1797892;79;25607;-61
2021/04/17 12:16:58;;;;;;;26.77;18.92;;;;;;;13.02;82.47;100542.44;1798435;79;25698;-62
2021/04/17 12:19:25;;;;;;;26.20;20.12;;;;;;;12.93;81.44;100538.94;1789304;79;25620;-62
2021/04/17 12:21:51;;;;;;;28.77;21.23;;;;;;;12.85;81.13;100539.15;1795286;79;26351;-61
2021/04/17 12:24:19;;;;;;;27.50;21.35;;;;;;;12.75;80.66;100538.67;1789386;79;25370;-62
2021/04/17 12:26:47;;;;;;;29.42;20.35;;;;;;;12.63;80.25;100542.00;1795950;79;25382;-61
2021/04/17 12:29:14;;;;;;;32.38;21.17;;;;;;;12.55;80.63;100537.35;1790584;79;25841;-62
2021/04/17 12:31:40;;;;;;;28.27;20.82;;;;;;;12.48;80.52;100540.52;1804577;79;25292;-60
2021/04/17 12:34:07;;;;;;;25.65;18.95;;;;;;;12.51;81.05;100538.01;1789409;80;25304;-62
2021/04/17 12:36:33;;;;;;;27.05;20.12;;;;;;;12.49;80.27;100540.78;1767455;80;25333;-64
2021/04/17 12:39:00;;;;;;;25.88;19.20;;;;;;;12.40;79.67;100537.26;1791501;78;25268;-63
2021/04/17 12:41:27;;;;;;;25.43;18.32;;;;;;;12.35;79.85;100538.20;1778387;80;25800;-62
2021/04/17 12:43:53;;;;;;;26.00;17.95;;;;;;;12.32;79.42;100540.17;1792708;78;25383;-63
2021/04/17 12:46:20;;;;;;;27.22;19.05;;;;;;;12.25;79.34;100540.62;1789548;80;25445;-63
2021/04/17 12:48:47;;;;;;;25.72;20.05;;;;;;;12.21;79.31;100536.13;1789911;80;25300;-67
2021/04/17 12:51:13;;;;;;;29.60;20.77;;;;;;;12.24;80.70;100532.80;1789238;80;25357;-68
2021/04/17 12:53:40;;;;;;;29.50;20.72;;;;;;;12.47;80.48;100529.45;1756905;81;25758;-67
2021/04/17 12:56:06;;;;;;;24.40;17.23;;;;;;;12.78;81.53;100525.83;1757018;81;25356;-66
2021/04/17 12:58:37;;;;;;;21.07;16.87;;;;;;;13.21;81.24;100522.31;1788182;80;25379;-66
2021/04/17 13:01:01;;;;;;;24.67;17.92;;;;;;;13.34;79.19;100515.14;1796585;78;25415;-66
2021/04/17 13:03:27;;;;;;;24.43;18.62;;;;;;;13.37;78.78;100518.59;1781323;80;25334;-66
2021/04/17 13:05:54;;;;;;;26.35;18.77;;;;;;;13.36;78.54;100521.05;1781935;80;26726;-67
2021/04/17 13:08:23;;;;;;;25.95;18.85;;;;;;;13.50;78.90;100522.22;1781192;79;25281;-68
2021/04/17 13:10:49;;;;;;;25.02;18.02;;;;;;;13.56;78.91;100520.38;1780970;80;25362;-68
2021/04/17 13:13:16;;;;;;;23.25;18.82;;;;;;;13.74;78.80;100517.60;1781492;80;25306;-68
2021/04/17 13:15:45;;;;;;;24.30;17.70;;;;;;;13.99;79.20;100509.91;1780658;80;25012;-67
2021/04/17 13:18:14;;;;;;;22.60;17.98;;;;;;;14.63;80.16;100519.05;1786577;78;25823;-66
2021/04/17 13:20:42;;;;;;;19.35;16.17;;;;;;;15.32;79.41;100520.97;1778046;80;25474;-68
2021/04/17 13:23:09;;;;;;;20.20;14.90;;;;;;;15.50;75.91;100516.94;1819185;78;25350;-67
2021/04/17 13:25:36;;;;;;;20.48;15.03;;;;;;;15.43;73.69;100521.36;1780540;80;24978;-67
2021/04/17 13:28:04;;;;;;;17.75;15.28;;;;;;;15.37;74.18;100519.39;1780770;80;25353;-68
2021/04/17 13:30:31;;;;;;;18.85;13.68;;;;;;;15.34;72.35;100523.36;1780611;80;26701;-69
2021/04/17 13:32:58;;;;;;;17.82;13.32;;;;;;;15.13;72.19;100520.11;1780804;80;25297;-69
2021/04/17 13:35:25;;;;;;;17.17;14.05;;;;;;;14.94;71.34;100513.20;1780589;80;25361;-69
2021/04/17 13:37:52;;;;;;;16.23;13.20;;;;;;;14.80;71.97;100520.07;1780560;80;25291;-69
2021/04/17 13:40:19;;;;;;;15.98;13.22;;;;;;;14.80;72.24;100513.27;1780850;80;25340;-69
2021/04/17 13:42:45;;;;;;;15.50;12.65;;;;;;;14.77;72.35;100515.28;1780865;80;26675;-69
2021/04/17 13:45:13;;;;;;;16.20;12.73;;;;;;;14.80;72.71;100519.50;1780548;80;25303;-68
2021/04/17 13:47:40;;;;;;;16.25;12.45;;;;;;;14.93;72.64;100520.34;1780736;80;25333;-68
2021/04/17 13:50:08;;;;;;;15.10;12.58;;;;;;;15.20;72.79;100517.63;1780762;80;25287;-68
2021/04/17 13:52:35;;;;;;;15.10;12.53;;;;;;;15.53;73.07;100505.95;1780752;80;25275;-69
2021/04/17 13:55:03;;;;;;;17.27;13.38;;;;;;;15.74;72.57;100519.50;1780792;80;25733;-68
2021/04/17 13:57:30;;;;;;;17.77;13.38;;;;;;;15.83;71.70;100510.70;1780713;80;25326;-68
2021/04/17 13:59:57;;;;;;;16.00;12.45;;;;;;;15.78;70.41;100498.64;1785493;80;25311;-67
2021/04/17 14:02:25;;;;;;;12.98;10.95;;;;;;;15.69;70.35;100502.78;1802571;78;25464;-67
2021/04/17 14:04:53;;;;;;;14.23;10.65;;;;;;;15.70;70.22;100507.69;1808344;78;25413;-67
2021/04/17 14:07:20;;;;;;;13.65;11.00;;;;;;;15.65;69.54;100508.69;1787756;80;25758;-68
2021/04/17 14:09:46;;;;;;;13.50;10.25;;;;;;;15.60;69.62;100499.37;1791290;80;25064;-68
2021/04/17 14:12:14;;;;;;;15.50;12.53;;;;;;;15.59;69.28;100502.42;1761369;81;25503;-68
2021/04/17 14:14:41;;;;;;;17.82;13.13;;;;;;;15.55;68.56;100503.67;1813066;78;25420;-68
2021/04/17 14:17:08;;;;;;;16.05;12.47;;;;;;;15.42;68.33;100502.83;1826693;78;25515;-68
2021/04/17 14:19:34;;;;;;;15.60;12.05;;;;;;;15.29;68.30;100502.59;1820251;78;25803;-69
2021/04/17 14:22:01;;;;;;;13.90;11.78;;;;;;;15.16;68.22;100504.45;1794361;80;25484;-68
2021/04/17 14:24:28;;;;;;;16.00;13.08;;;;;;;14.99;68.20;100494.51;1763651;81;25440;-68
2021/04/17 14:26:55;;;;;;;16.67;12.68;;;;;;;14.87;68.47;100494.45;1766382;79;25467;-68
2021/04/17 14:29:22;;;;;;;16.27;12.63;;;;;;;14.66;68.53;100501.25;1788739;79;25333;-68
2021/04/17 14:31:50;;;;;;;18.02;13.50;;;;;;;14.44;68.35;100499.59;1778464;79;26641;-67
2021/04/17 14:34:16;;;;;;;18.17;13.25;;;;;;;14.26;69.02;100496.98;1781937;79;25333;-68
2021/04/17 14:36:43;;;;;;;28.00;20.92;;;;;;;14.16;69.67;100496.79;1791297;79;25339;-68
2021/04/17 14:39:09;;;;;;;20.65;14.30;;;;;;;14.05;69.92;100488.00;1805036;79;25345;-67
2021/04/17 14:41:37;;;;;;;17.45;13.32;;;;;;;13.94;70.37;100494.34;1786838;79;25330;-68
2021/04/17 14:44:10;;;;;;;18.55;13.88;;;;;;;13.84;70.85;100488.70;1786879;80;26635;-68
2021/04/17 14:46:34;;;;;;;17.25;13.08;;;;;;;13.89;71.81;100489.88;1786216;80;25363;-69
2021/04/17 14:49:00;;;;;;;15.75;12.75;;;;;;;13.95;72.38;100489.16;1786921;80;25345;-68
2021/04/17 14:51:27;;;;;;;17.05;12.73;;;;;;;14.02;72.25;100486.72;1786715;80;25297;-68
2021/04/17 14:53:53;;;;;;;16.67;12.65;;;;;;;14.07;72.55;100481.09;1786798;80;25272;-68
2021/04/17 14:56:20;;;;;;;17.75;12.70;;;;;;;14.06;71.31;100490.36;1786882;80;25766;-67
2021/04/17 14:58:47;;;;;;;17.10;12.50;;;;;;;14.00;71.19;100488.97;1785771;80;25333;-67
2021/04/17 15:01:14;;;;;;;15.28;12.07;;;;;;;13.97;71.32;100484.97;1779671;79;25954;-68
2021/04/17 15:03:40;;;;;;;16.02;12.65;;;;;;;13.94;71.04;100479.39;1779198;79;25350;-68
2021/04/17 15:06:06;;;;;;;17.87;13.48;;;;;;;13.89;71.32;100482.29;1787432;79;25531;-68
2021/04/17 15:08:35;;;;;;;18.67;13.50;;;;;;;13.82;70.65;100480.89;1788090;79;25719;-68
2021/04/17 15:11:03;;;;;;;19.27;14.80;;;;;;;13.65;70.42;100482.30;1784706;79;25096;-69
2021/04/17 15:13:31;;;;;;;20.45;14.07;;;;;;;13.48;70.60;100486.43;1794995;79;25294;-69
2021/04/17 15:15:59;;;;;;;18.50;14.58;;;;;;;13.33;70.77;100476.86;1789516;79;25282;-69
2021/04/17 15:18:27;;;;;;;20.60;15.58;;;;;;;13.22;71.02;100474.45;1792345;79;25274;-69
2021/04/17 15:20:55;;;;;;;22.52;16.62;;;;;;;13.11;71.13;100472.39;1801894;79;25696;-69
2021/04/17 15:23:23;;;;;;;21.55;15.58;;;;;;;12.98;71.30;100483.69;1801892;79;25284;-68
2021/04/17 15:25:53;;;;;;;21.12;16.57;;;;;;;12.83;71.37;100480.88;1799605;79;25376;-68
2021/04/17 15:28:27;;;;;;;23.45;16.55;;;;;;;12.73;71.65;100476.56;1788204;79;25407;-68
2021/04/17 15:30:54;;;;;;;22.17;16.45;;;;;;;12.63;71.72;100481.77;1774841;79;25452;-69
2021/04/17 15:33:24;;;;;;;21.33;16.90;;;;;;;12.51;71.90;100485.10;1776991;79;25736;-71
2021/04/17 15:35:52;;;;;;;25.80;19.00;;;;;;;12.41;72.23;100475.09;1793186;79;25273;-72
2021/04/17 15:38:26;;;;;;;24.67;18.30;;;;;;;12.29;72.32;100472.45;1801997;79;25283;-72
2021/04/17 15:40:57;;;;;;;21.12;14.93;;;;;;;12.19;72.54;100476.00;1797523;79;25415;-71
2021/04/17 15:43:24;;;;;;;18.73;13.70;;;;;;;12.07;72.65;100475.25;1787379;79;25309;-71
2021/04/17 15:45:51;;;;;;;23.27;15.72;;;;;;;11.95;72.87;100494.28;1778219;79;26539;-71
2021/04/17 15:48:18;;;;;;;14.35;10.72;;;;;;;11.87;73.42;100563.34;1798499;79;25352;-69
2021/04/17 15:50:47;;;;;;;14.33;10.58;;;;;;;11.66;72.01;100583.36;1801823;79;25305;-70
2021/04/17 15:53:13;;;;;;;13.50;3.87;;;;;;;11.37;71.93;100591.36;1802187;79;25374;-71
2021/04/17 15:55:43;;;;;;;5.33;3.05;;;;;;;10.84;69.64;100589.56;1802105;79;25272;-67
2021/04/17 16:17:13;;;;;;;5.75;3.47;;;;;;;7.38;77.26;100516.29;1855331;76;34569;-66
2021/04/17 16:19:39;;;;;;;5.72;3.22;;;;;;;7.23;78.00;100513.17;1826960;77;25391;-66
2021/04/17 16:22:06;;;;;;;4.95;3.50;;;;;;;7.17;78.53;100503.52;1828702;77;25783;-66
2021/04/17 16:24:36;;;;;;;8.85;4.20;;;;;;;7.11;79.12;100505.45;1830822;77;26309;-65
2021/04/17 16:27:03;;;;;;;7.58;4.55;;;;;;;7.08;79.55;100495.25;1825494;78;25586;-65
2021/04/17 16:29:35;;;;;;;6.12;4.30;;;;;;;7.05;79.81;100496.62;1826917;76;25563;-66
2021/04/17 16:31:59;;;;;;;6.35;4.03;;;;;;;7.07;80.12;100492.31;1825380;78;25398;-65
2021/04/17 16:34:26;;;;;;;6.83;4.35;;;;;;;7.06;80.42;100495.52;1851092;77;25690;-64
2021/04/17 16:36:52;;;;;;;10.60;6.85;;;;;;;7.08;80.60;100502.80;1859166;77;25598;-64
2021/04/17 16:39:18;;;;;;;6.25;4.40;;;;;;;7.09;80.77;100504.39;1860009;77;25494;-65
2021/04/17 16:41:45;;;;;;;5.65;3.35;;;;;;;7.11;81.63;100504.11;1859923;77;25304;-64
2021/04/17 16:44:12;;;;;;;5.15;3.80;;;;;;;7.14;81.71;100501.41;1849196;77;25594;-64
2021/04/17 16:46:42;;;;;;;6.17;4.15;;;;;;;7.17;81.98;100506.20;1826313;78;25735;-64
2021/04/17 16:49:11;;;;;;;5.72;3.75;;;;;;;7.19;82.18;100505.41;1826209;78;25477;-64
2021/04/17 16:51:38;;;;;;;5.35;4.17;;;;;;;7.23;82.28;100512.62;1827298;77;25321;-65
2021/04/17 16:54:06;;;;;;;8.18;4.90;;;;;;;7.25;82.41;100508.30;1849937;77;25502;-65
2021/04/17 16:56:33;;;;;;;6.92;4.08;;;;;;;7.26;82.57;100509.92;1828813;77;25426;-64
2021/04/17 16:58:59;;;;;;;5.92;3.67;;;;;;;7.28;82.70;100513.12;1826017;78;25698;-64
2021/04/17 17:01:26;;;;;;;22.60;9.85;;;;;;;7.29;82.74;100518.23;1857540;77;25498;-66
2021/04/17 17:03:55;;;;;;;21.87;11.15;;;;;;;7.28;83.05;100530.06;1859859;77;25243;-65
2021/04/17 17:06:21;;;;;;;19.57;11.20;;;;;;;7.27;82.82;100533.03;1859919;77;25628;-66
2021/04/17 17:08:48;;;;;;;18.00;11.68;;;;;;;7.27;82.92;100533.86;1860053;77;25305;-66
2021/04/17 17:11:14;;;;;;;15.83;10.50;;;;;;;7.27;82.94;100528.48;1860220;77;26711;-66
2021/04/17 17:13:43;;;;;;;16.95;11.70;;;;;;;7.27;82.95;100542.45;1860581;77;25301;-66
2021/04/17 17:16:10;;;;;;;18.07;12.55;;;;;;;7.26;83.07;100559.70;1859971;77;25778;-66
2021/04/17 17:18:36;;;;;;;21.40;15.88;;;;;;;7.25;83.16;100564.80;1861090;77;25742;-66
2021/04/17 17:21:05;;;;;;;19.45;12.55;;;;;;;7.23;83.30;100570.46;1850645;77;25566;-63
2021/04/17 17:23:32;;;;;;;15.03;11.00;;;;;;;7.22;83.29;100574.78;1846080;77;26589;-64
2021/04/17 17:25:59;;;;;;;16.73;10.85;;;;;;;7.18;83.15;100579.91;1814275;79;25618;-63
2021/04/17 17:28:25;;;;;;;25.12;12.28;;;;;;;7.15;83.21;100576.98;1813598;79;25335;-64
2021/04/17 17:30:52;;;;;;;25.85;13.83;;;;;;;7.10;83.13;100573.25;1813792;79;25923;-64
2021/04/17 17:33:18;;;;;;;23.90;13.03;;;;;;;7.08;82.99;100582.15;1813835;79;25470;-64
2021/04/17 17:35:45;;;;;;;19.02;12.03;;;;;;;7.04;82.95;100578.94;1813174;79;25693;-65
2021/04/17 17:38:11;;;;;;;19.80;11.50;;;;;;;7.00;82.83;100591.31;1813278;79;25548;-65
2021/04/17 17:40:39;;;;;;;22.20;13.28;;;;;;;6.96;83.04;100590.27;1813386;78;25558;-64
2021/04/17 17:43:07;;;;;;;37.42;20.43;;;;;;;6.94;83.12;100588.41;1813140;79;25583;-65
2021/04/17 17:45:34;;;;;;;26.42;15.68;;;;;;;6.91;83.24;100590.58;1827989;77;25623;-64
2021/04/17 17:48:03;;;;;;;30.77;18.42;;;;;;;6.91;83.37;100587.06;1835783;77;26608;-66
2021/04/17 17:50:32;;;;;;;26.15;16.15;;;;;;;6.90;83.49;100584.12;1858609;77;25313;-65
2021/04/17 17:52:59;;;;;;;21.75;14.05;;;;;;;6.90;83.59;100585.47;1859332;77;25711;-65